createdAt,value
2023-04-30T00:01:53.661Z,2.97
2023-04-30T00:07:09.706Z,2.63
2023-04-30T00:12:25.625Z,2.20
2023-04-30T00:17:41.400Z,2.97
2023-04-30T00:22:57.243Z,3.05
2023-04-30T00:28:13.244Z,2.63
2023-04-30T00:33:29.105Z,2.38
2023-04-30T00:38:44.966Z,2.17
2023-04-30T00:44:02.480Z,1.95
2023-04-30T00:49:18.305Z,2.13
2023-04-30T00:54:34.357Z,2.63
2023-04-30T00:59:51.787Z,1.95
2023-04-30T01:05:08.298Z,2.33
2023-04-30T01:10:32.520Z,1.95
2023-04-30T01:16:00.929Z,2.30
2023-04-30T01:21:22.503Z,1.92
2023-04-30T01:27:06.116Z,1.90
2023-04-30T01:32:21.741Z,2.05
2023-04-30T01:38:04.282Z,2.10
2023-04-30T01:43:27.876Z,1.67
2023-04-30T01:48:47.765Z,2.10
2023-04-30T01:54:10.769Z,2.00
2023-04-30T01:59:27.113Z,2.05
2023-04-30T02:04:43.109Z,2.20
2023-04-30T02:09:59.242Z,1.80
2023-04-30T02:15:15.449Z,2.47
2023-04-30T02:20:31.231Z,1.92
2023-04-30T02:25:47.117Z,1.80
2023-04-30T02:31:02.627Z,2.10
2023-04-30T02:36:18.492Z,1.85
2023-04-30T02:41:34.381Z,1.85
2023-04-30T02:46:50.266Z,2.25
2023-04-30T02:52:07.628Z,2.92
2023-04-30T02:57:23.711Z,2.83
2023-04-30T03:02:39.971Z,3.03
2023-04-30T03:07:56.176Z,2.40
2023-04-30T03:13:11.857Z,2.42
2023-04-30T03:18:29.499Z,3.00
2023-04-30T03:23:45.522Z,2.72
2023-04-30T03:29:02.324Z,2.70
2023-04-30T03:34:18.408Z,2.65
2023-04-30T03:39:34.631Z,3.30
2023-04-30T03:44:50.573Z,3.25
2023-04-30T03:50:07.563Z,3.35
2023-04-30T03:55:23.626Z,2.90
2023-04-30T04:00:42.169Z,2.65
2023-04-30T04:05:57.798Z,2.90
2023-04-30T04:11:13.782Z,2.60
2023-04-30T04:16:29.808Z,2.75
2023-04-30T04:21:45.825Z,2.35
2023-04-30T04:27:03.729Z,2.33
2023-04-30T04:32:19.176Z,3.35
2023-04-30T04:37:35.781Z,3.63
2023-04-30T04:42:54.131Z,2.30
2023-04-30T04:48:09.968Z,2.40
2023-04-30T04:53:25.784Z,3.00
2023-04-30T04:58:43.230Z,2.40
2023-04-30T05:03:59.126Z,2.15
2023-04-30T05:09:16.077Z,1.88
2023-04-30T05:14:31.673Z,2.03
2023-04-30T05:19:51.000Z,2.40
2023-04-30T05:25:07.464Z,2.22
2023-04-30T05:30:22.946Z,2.13
2023-04-30T05:35:38.773Z,1.80
2023-04-30T05:40:54.811Z,1.75
2023-04-30T05:46:10.835Z,2.42
2023-04-30T05:51:28.029Z,7.28
2023-04-30T05:56:43.516Z,3.40
2023-04-30T06:01:59.472Z,1.65
2023-04-30T06:07:15.363Z,1.70
2023-04-30T06:12:31.779Z,2.28
2023-04-30T06:17:47.692Z,1.83
2023-04-30T06:23:04.142Z,1.98
2023-04-30T06:28:19.661Z,2.42
2023-04-30T06:33:35.590Z,1.67
2023-04-30T06:38:51.380Z,1.73
2023-04-30T06:44:07.374Z,1.20
2023-04-30T06:49:23.181Z,1.70
2023-04-30T06:54:38.840Z,1.70
2023-04-30T06:59:55.474Z,1.77
2023-04-30T07:05:12.337Z,1.38
2023-04-30T07:10:28.261Z,1.60
2023-04-30T07:15:44.146Z,1.73
2023-04-30T07:20:59.796Z,1.65
2023-04-30T07:26:16.088Z,1.50
2023-04-30T07:31:31.523Z,1.02
2023-04-30T07:36:48.880Z,1.33
2023-04-30T07:42:04.879Z,1.25
2023-04-30T07:47:20.553Z,1.17
2023-04-30T07:52:36.348Z,0.90
2023-04-30T07:57:52.276Z,1.00
2023-04-30T08:03:08.753Z,0.98
2023-04-30T08:08:24.347Z,1.10
2023-04-30T08:13:40.193Z,1.23
2023-04-30T08:18:56.303Z,0.95
2023-04-30T08:24:12.225Z,1.30
2023-04-30T08:29:29.559Z,1.60
2023-04-30T08:34:45.518Z,1.05
2023-04-30T08:40:01.398Z,1.45
2023-04-30T08:45:18.047Z,1.10
2023-04-30T08:50:35.145Z,0.90
2023-04-30T08:55:50.593Z,0.98
2023-04-30T09:01:09.131Z,1.42
2023-04-30T09:06:25.043Z,1.38
2023-04-30T09:11:40.830Z,0.90
2023-04-30T09:16:56.494Z,1.63
2023-04-30T09:22:24.841Z,1.20
2023-04-30T09:27:40.403Z,1.25
2023-04-30T09:32:57.013Z,0.90
2023-04-30T09:38:32.973Z,1.10
2023-04-30T09:43:48.558Z,0.80
2023-04-30T09:49:05.983Z,0.50
2023-04-30T09:54:29.804Z,1.10
2023-04-30T09:59:47.095Z,0.77
2023-04-30T10:05:03.440Z,1.02
2023-04-30T10:10:20.652Z,1.10
2023-04-30T10:15:40.283Z,0.80
2023-04-30T10:20:59.508Z,0.73
2023-04-30T10:26:17.199Z,1.25
2023-04-30T10:31:33.725Z,0.70
2023-04-30T10:36:59.712Z,0.60
2023-04-30T10:42:15.431Z,0.70
2023-04-30T10:47:31.490Z,0.60
2023-04-30T10:52:47.145Z,0.68
2023-04-30T10:58:22.651Z,0.63
2023-04-30T11:03:42.512Z,0.85
2023-04-30T11:09:04.476Z,0.52
2023-04-30T11:14:23.281Z,0.90
2023-04-30T11:20:01.232Z,0.95
2023-04-30T11:25:20.450Z,0.63
2023-04-30T11:30:37.248Z,0.85
2023-04-30T11:35:54.077Z,0.80
2023-04-30T11:41:13.094Z,0.75
2023-04-30T11:46:29.776Z,0.73
2023-04-30T11:51:50.356Z,0.47
2023-04-30T11:57:06.633Z,0.88
2023-04-30T12:02:23.397Z,0.60
2023-04-30T12:07:39.997Z,0.70
2023-04-30T12:12:55.543Z,0.68
2023-04-30T12:18:14.076Z,0.52
2023-04-30T12:23:30.539Z,0.68
2023-04-30T12:28:50.020Z,0.75
2023-04-30T12:34:10.725Z,0.88
2023-04-30T12:39:33.281Z,0.43
2023-04-30T12:44:49.260Z,0.82
2023-04-30T12:50:07.486Z,0.65
2023-04-30T12:55:23.249Z,0.70
2023-04-30T13:00:51.822Z,0.80
2023-04-30T13:06:08.109Z,0.60
2023-04-30T13:11:25.101Z,0.77
2023-04-30T13:16:41.198Z,0.88
2023-04-30T13:21:59.297Z,0.80
2023-04-30T13:27:15.255Z,0.63
2023-04-30T13:32:31.121Z,0.75
2023-04-30T13:37:49.333Z,0.80
2023-04-30T13:43:04.994Z,0.80
2023-04-30T13:48:21.005Z,0.95
2023-04-30T13:53:37.643Z,0.95
2023-04-30T13:58:53.430Z,0.75
2023-04-30T14:04:09.326Z,0.95
2023-04-30T14:09:25.711Z,0.93
2023-04-30T14:14:42.168Z,0.70
2023-04-30T14:19:58.363Z,0.80
2023-04-30T14:25:14.335Z,0.60
2023-04-30T14:30:30.383Z,1.00
2023-04-30T14:35:47.657Z,1.05
2023-04-30T14:41:03.531Z,0.90
2023-04-30T14:46:20.148Z,1.00
2023-04-30T14:51:36.232Z,0.63
2023-04-30T14:56:52.774Z,0.60
2023-04-30T15:02:09.520Z,0.70
2023-04-30T15:07:25.426Z,1.08
2023-04-30T15:12:42.739Z,1.00
2023-04-30T15:17:59.174Z,2.47
2023-04-30T15:23:14.929Z,2.22
2023-04-30T15:28:36.117Z,1.77
2023-04-30T15:33:52.011Z,1.67
2023-04-30T15:39:07.752Z,1.67
2023-04-30T15:44:23.946Z,1.20
2023-04-30T15:49:39.656Z,1.30
2023-04-30T15:54:55.652Z,0.85
2023-04-30T16:00:14.642Z,0.90
2023-04-30T16:05:30.197Z,0.90
2023-04-30T16:10:47.278Z,1.20
2023-04-30T16:16:05.696Z,1.00
2023-04-30T16:21:21.561Z,1.10
2023-04-30T16:26:37.474Z,1.10
2023-04-30T16:31:54.425Z,1.30
2023-04-30T16:37:10.124Z,1.02
2023-04-30T16:42:28.069Z,1.17
2023-04-30T16:47:44.068Z,1.40
2023-04-30T16:53:00.015Z,1.77
2023-04-30T16:58:16.236Z,1.30
2023-04-30T17:03:34.901Z,1.13
2023-04-30T17:08:51.558Z,1.40
2023-04-30T17:14:07.536Z,1.55
2023-04-30T17:19:23.457Z,1.27
2023-04-30T17:24:39.557Z,1.25
2023-04-30T17:29:56.200Z,1.77
2023-04-30T17:35:12.432Z,1.80
2023-04-30T17:40:28.373Z,1.38
2023-04-30T17:45:44.627Z,1.30
2023-04-30T17:51:01.022Z,1.75
2023-04-30T17:56:16.503Z,1.63
2023-04-30T18:01:32.382Z,2.03
2023-04-30T18:06:48.679Z,2.10
2023-04-30T18:12:04.711Z,1.40
2023-04-30T18:17:20.532Z,1.92
2023-04-30T18:22:43.459Z,1.77
2023-04-30T18:27:59.954Z,1.63
2023-04-30T18:33:16.101Z,2.67
2023-04-30T18:38:32.606Z,2.53
2023-04-30T18:43:48.937Z,2.13
2023-04-30T18:49:05.644Z,1.98
2023-04-30T18:54:22.732Z,1.70
2023-04-30T18:59:40.002Z,2.33
2023-04-30T19:04:55.835Z,1.95
2023-04-30T19:10:11.859Z,2.47
2023-04-30T19:15:29.885Z,2.95
2023-04-30T19:21:00.483Z,2.20
2023-04-30T19:26:16.374Z,2.67
2023-04-30T19:31:35.696Z,2.42
2023-04-30T19:36:51.958Z,2.42
2023-04-30T19:42:11.516Z,2.88
2023-04-30T19:47:27.407Z,2.67
2023-04-30T19:52:43.349Z,2.50
2023-04-30T19:57:59.302Z,2.47
2023-04-30T20:03:17.186Z,2.47
2023-04-30T20:08:32.965Z,2.80
2023-04-30T20:13:49.067Z,2.95
2023-04-30T20:19:05.107Z,2.65
2023-04-30T20:24:22.115Z,2.50
2023-04-30T20:29:40.472Z,3.28
2023-04-30T20:34:56.110Z,2.60
2023-04-30T20:40:12.326Z,2.85
2023-04-30T20:45:28.593Z,2.53
2023-04-30T20:50:45.053Z,3.17
2023-04-30T20:56:01.589Z,2.58
2023-04-30T21:01:17.341Z,3.15
2023-04-30T21:06:33.695Z,3.28
2023-04-30T21:11:50.172Z,3.55
2023-04-30T21:17:07.516Z,2.80
2023-04-30T21:22:24.233Z,2.97
2023-04-30T21:27:40.099Z,3.40
2023-04-30T21:32:58.818Z,3.65
2023-04-30T21:38:15.119Z,4.15
2023-04-30T21:43:31.332Z,4.30
2023-04-30T21:48:48.473Z,4.00
2023-04-30T21:54:04.461Z,5.18
2023-04-30T21:59:20.146Z,5.30
2023-04-30T22:04:36.024Z,4.00
2023-04-30T22:09:52.779Z,3.90
2023-04-30T22:15:09.286Z,5.10
2023-04-30T22:20:24.807Z,4.57
2023-04-30T22:25:40.598Z,4.93
2023-04-30T22:31:02.663Z,3.95
2023-04-30T22:36:18.737Z,4.28
2023-04-30T22:41:34.995Z,5.30
2023-04-30T22:46:51.360Z,4.38
2023-04-30T22:52:07.596Z,4.57
2023-04-30T22:57:23.063Z,4.47
2023-04-30T23:02:38.683Z,5.10
2023-04-30T23:07:54.599Z,5.03
2023-04-30T23:13:10.765Z,4.90
2023-04-30T23:18:27.243Z,3.55
2023-04-30T23:23:42.881Z,4.65
2023-04-30T23:28:58.898Z,4.57
2023-04-30T23:34:15.059Z,5.35
2023-04-30T23:39:31.052Z,4.97
2023-04-30T23:44:46.899Z,4.88
2023-04-30T23:50:04.244Z,4.78
2023-04-30T23:55:20.864Z,4.95
